Terminal Aerodrome Forecast
Issued by NWS Green Bay, WI

Home | Current Version | Previous Version | Text Only | Print | Product List | Glossary On
Versions: 1 2 3 4 5 6 7 8 9 10 11 12 13 14 15 16 17 18 19 20 21 22 23 24 25 26 27 28 29 30 31 32 33 34 35 36 37 38 39
000
FTUS43 KGRB 301127
TAFGRB
TAF
KGRB 301127Z 3012/3112 05011G21KT 6SM -RASN SCT009 OVC022
      TEMPO 3012/3016 3SM -SN BKN009
     FM301600 05013G24KT 4SM -RA BR OVC006
     FM310200 04015G25KT 6SM -RASN BR OVC008
     FM310700 03015G25KT P6SM VCSH OVC012=

USA.gov is the U.S. government's official web portal to all federal, state and local government web resources and services.